Home   Weather   Portugal   Vila Nova de Gaia   Past weeks
Flag for Portugal

Past Weather in Vila Nova de Gaia, Porto, Portugal — Yesterday and Last 2 Weeks

Currently: 81 °F. Sunny. (Weather station: Porto / Pedras Rubras, Portugal). See more current weather

Past Weather in Vila Nova de Gaia — Graph

°F

Vila Nova de Gaia Temperature Yesterday

Maximum temperature yesterday: 82 °F (at 1:00 pm)
Minimum temperature yesterday: 57 °F (at 5:30 am)
Average temperature yesterday: 70 °F

High & Low Weather Summary for the Past Weeks

 TemperatureHumidityPressure
High88 °F (Jun 12, 1:00 pm)100% (Jun 11, 2:00 am)30.15 "Hg (Jun 11, 2:00 am)
Low52 °F (Jun 23, 5:30 am)30% (Jun 24, 1:00 pm)29.80 "Hg (Jun 20, 4:00 am)
Average66 °F80%29.99 "Hg
* Reported Jun 10 1:00 pm — Jun 25 1:30 pm, Vila Nova de Gaia. Weather by CustomWeather, © 2021

Note: Actual official high and low records may vary slightly from our data, if they occured in-between our weather recording intervals... More about our weather records

Vila Nova de Gaia Weather History for the Previous 24 Hours

Scroll right to see more
 ConditionsComfort  
Time TempWeatherWind HumidityBarometerVisibility
1:30 pm
Fri, Jun 25
79 °FPassing clouds.6 mph48%30.04 "HgN/A
1:00 pm79 °FPassing clouds.7 mph48%30.04 "HgN/A
12:30 pm81 °FPassing clouds.8 mph48%30.04 "HgN/A
12:00 pm81 °FPassing clouds.7 mph45%30.04 "HgN/A
11:30 am84 °FPassing clouds.7 mph35%30.04 "HgN/A
11:00 am84 °FPassing clouds.8 mph35%30.04 "HgN/A
10:30 am81 °FSunny.10 mph39%30.04 "Hg10 mi
10:00 am81 °FSunny.12 mph39%30.04 "Hg10 mi
9:30 am79 °FSunny.12 mph42%30.04 "Hg10 mi
9:00 am77 °FPassing clouds.10 mph44%30.04 "HgN/A
8:30 am75 °FSunny.9 mph47%30.04 "Hg10 mi
8:00 am73 °FSunny.8 mph50%30.04 "Hg10 mi
7:30 am70 °FSunny.8 mph60%30.04 "Hg10 mi
7:00 am66 °FPassing clouds.9 mph64%30.04 "HgN/A
6:30 am63 °FSunny.8 mph73%30.04 "Hg10 mi
6:00 am64 °FClear.10 mph68%30.04 "Hg10 mi
5:30 am64 °FPassing clouds.8 mph73%30.04 "HgN/A
5:00 am64 °FClear.7 mph73%30.04 "Hg10 mi
4:30 am64 °FClear.7 mph73%30.04 "Hg10 mi
4:00 am68 °FClear.2 mph64%30.04 "Hg10 mi
3:30 am66 °FClear.5 mph73%30.04 "Hg10 mi
3:00 am68 °FClear.5 mph73%30.07 "Hg10 mi
2:30 am66 °FClear.5 mph73%30.07 "Hg10 mi
2:00 am66 °FClear.3 mph78%30.07 "Hg10 mi
1:30 am66 °FClear.2 mph78%30.07 "Hg10 mi
1:00 am66 °FPassing clouds.3 mph73%30.07 "HgN/A
12:30 am66 °FClear.No wind78%30.09 "Hg10 mi
12:00 am64 °FClear.No wind83%30.09 "Hg10 mi
11:30 pm
Thu, Jun 24
66 °FClear.No wind78%30.09 "Hg10 mi
11:00 pm66 °FClear.No wind73%30.09 "Hg10 mi
10:30 pm68 °FClear.No wind69%30.09 "Hg10 mi
10:00 pm70 °FClear.3 mph64%30.07 "Hg10 mi
9:30 pm72 °FClear.6 mph61%30.07 "Hg10 mi
9:00 pm73 °FSunny.7 mph57%30.07 "Hg10 mi
8:30 pm75 °FSunny.8 mph54%30.07 "Hg10 mi
8:00 pm75 °FSunny.10 mph50%30.07 "Hg10 mi
7:30 pm77 °FSunny.12 mph47%30.07 "Hg10 mi
7:00 pm77 °FSunny.10 mph47%30.07 "Hg10 mi
6:30 pm79 °FSunny.14 mph42%30.07 "Hg10 mi
6:00 pm79 °FSunny.14 mph42%30.07 "Hg10 mi
5:30 pm79 °FSunny.14 mph39%30.07 "Hg10 mi
5:00 pm79 °FSunny.13 mph39%30.09 "Hg10 mi
4:30 pm79 °FSunny.13 mph39%30.09 "Hg10 mi
4:00 pm79 °FSunny.13 mph42%30.09 "Hg10 mi
3:30 pm77 °FSunny.13 mph44%30.09 "Hg10 mi
3:00 pm77 °FSunny.10 mph44%30.09 "Hg10 mi
Weather by CustomWeather, © 2021

See weather overview